DAL1237 KFSD-KATL
Flight info
| Callsign | DAL1237 |
|---|---|
| Flight time | 1h 48m |
| Altitude | 39000 |
| Route | FOD JORDY COLIE ENL HITMN NEWBB IHAVE MTHEW CHPPR1 |
| Aircraft | A319/M-SDE3FGHIRWY/LB1 |
Departure
| Time | 2026-05-05 17:24 |
|---|---|
| Airport | Sioux Falls Regional Airport (KFSD) |
Arrival
| Time | 2026-05-05 19:13 |
|---|---|
| Airport | Hartsfield Jackson Atlanta International Airport (KATL) |
| Time | Latitude | Longitude | Altitude | Speed | Heading |
|---|---|---|---|---|---|
| 2026-05-05 17:09 | 43.58013 | -96.73370 | 1431 ft | 0 kts | 49° |
| 2026-05-05 17:17 | 43.58008 | -96.73379 | 1431 ft | 4 kts | 42° |
| 2026-05-05 17:17 | 43.57987 | -96.73394 | 1431 ft | 4 kts | 349° |
| 2026-05-05 17:17 | 43.57966 | -96.73377 | 1431 ft | 4 kts | 308° |
| 2026-05-05 17:18 | 43.57952 | -96.73349 | 1431 ft | 1 kts | 300° |
| 2026-05-05 17:18 | 43.57952 | -96.73348 | 1431 ft | 0 kts | 300° |
| 2026-05-05 17:20 | 43.57955 | -96.73355 | 1431 ft | 3 kts | 301° |
| 2026-05-05 17:20 | 43.57977 | -96.73406 | 1431 ft | 9 kts | 301° |
| 2026-05-05 17:21 | 43.58012 | -96.73485 | 1431 ft | 10 kts | 300° |
| 2026-05-05 17:21 | 43.58026 | -96.73559 | 1431 ft | 8 kts | 251° |
| 2026-05-05 17:21 | 43.57979 | -96.73583 | 1431 ft | 8 kts | 167° |
| 2026-05-05 17:22 | 43.57835 | -96.73492 | 1431 ft | 15 kts | 155° |
| 2026-05-05 17:22 | 43.57737 | -96.73429 | 1431 ft | 16 kts | 154° |
| 2026-05-05 17:22 | 43.57639 | -96.73365 | 1431 ft | 16 kts | 155° |
| 2026-05-05 17:22 | 43.57541 | -96.73302 | 1431 ft | 16 kts | 155° |
| 2026-05-05 17:23 | 43.57454 | -96.73250 | 1431 ft | 11 kts | 161° |
| 2026-05-05 17:23 | 43.57384 | -96.73261 | 1432 ft | 10 kts | 211° |
| 2026-05-05 17:23 | 43.57356 | -96.73342 | 1431 ft | 10 kts | 286° |
| 2026-05-05 17:23 | 43.57420 | -96.73393 | 1430 ft | 12 kts | 334° |
| 2026-05-05 17:24 | 43.57557 | -96.73482 | 1430 ft | 50 kts | 335° |
| 2026-05-05 17:24 | 43.58101 | -96.73832 | 1432 ft | 119 kts | 335° |
| 2026-05-05 17:24 | 43.58985 | -96.74396 | 1690 ft | 147 kts | 332° |
| 2026-05-05 17:24 | 43.59920 | -96.75002 | 2388 ft | 152 kts | 333° |
| 2026-05-05 17:25 | 43.60955 | -96.75343 | 3017 ft | 160 kts | 5° |
| 2026-05-05 17:25 | 43.61325 | -96.75210 | 3205 ft | 168 kts | 18° |
| 2026-05-05 17:25 | 43.62394 | -96.73326 | 3522 ft | 224 kts | 75° |
| 2026-05-05 17:25 | 43.61986 | -96.70261 | 4167 ft | 266 kts | 112° |
| 2026-05-05 17:26 | 43.61418 | -96.68712 | 4602 ft | 279 kts | 116° |
| 2026-05-05 17:26 | 43.60490 | -96.66335 | 5560 ft | 285 kts | 117° |
| 2026-05-05 17:26 | 43.59514 | -96.63918 | 6526 ft | 291 kts | 118° |
| 2026-05-05 17:26 | 43.58512 | -96.61455 | 7452 ft | 298 kts | 118° |
| 2026-05-05 17:27 | 43.57483 | -96.58933 | 8336 ft | 305 kts | 118° |
| 2026-05-05 17:27 | 43.56430 | -96.56353 | 9230 ft | 312 kts | 118° |
| 2026-05-05 17:27 | 43.55359 | -96.53717 | 10064 ft | 319 kts | 118° |
| 2026-05-05 17:27 | 43.54241 | -96.50954 | 10484 ft | 341 kts | 119° |
| 2026-05-05 17:28 | 43.53044 | -96.47996 | 10804 ft | 365 kts | 119° |
| 2026-05-05 17:28 | 43.51789 | -96.44886 | 11406 ft | 376 kts | 120° |
| 2026-05-05 17:28 | 43.50504 | -96.41707 | 12139 ft | 383 kts | 120° |
| 2026-05-05 17:28 | 43.49192 | -96.38475 | 12893 ft | 390 kts | 121° |
| 2026-05-05 17:29 | 43.47852 | -96.35190 | 13620 ft | 397 kts | 121° |
| 2026-05-05 17:29 | 43.46507 | -96.31896 | 14265 ft | 403 kts | 121° |
| 2026-05-05 17:29 | 43.45121 | -96.28500 | 14842 ft | 411 kts | 122° |
| 2026-05-05 17:29 | 43.43706 | -96.25040 | 15440 ft | 418 kts | 122° |
| 2026-05-05 17:30 | 43.42269 | -96.21533 | 16064 ft | 424 kts | 123° |
| 2026-05-05 17:30 | 43.40810 | -96.17976 | 16680 ft | 430 kts | 123° |
| 2026-05-05 17:30 | 43.39331 | -96.14369 | 17291 ft | 436 kts | 124° |
| 2026-05-05 17:30 | 43.37835 | -96.10713 | 17908 ft | 442 kts | 124° |
| 2026-05-05 17:31 | 43.36320 | -96.07009 | 18488 ft | 447 kts | 124° |
| 2026-05-05 17:31 | 43.34788 | -96.03266 | 19054 ft | 451 kts | 124° |
| 2026-05-05 17:31 | 43.33237 | -95.99495 | 19633 ft | 455 kts | 124° |
| 2026-05-05 17:31 | 43.31669 | -95.95695 | 20215 ft | 459 kts | 125° |
| 2026-05-05 17:32 | 43.30089 | -95.91869 | 20800 ft | 463 kts | 125° |
| 2026-05-05 17:32 | 43.28493 | -95.88011 | 21378 ft | 466 kts | 125° |
| 2026-05-05 17:32 | 43.26887 | -95.84133 | 21928 ft | 469 kts | 125° |
| 2026-05-05 17:32 | 43.25265 | -95.80223 | 22488 ft | 473 kts | 125° |
| 2026-05-05 17:33 | 43.23633 | -95.76290 | 23036 ft | 476 kts | 126° |
| 2026-05-05 17:33 | 43.21990 | -95.72333 | 23557 ft | 480 kts | 126° |
| 2026-05-05 17:33 | 43.20331 | -95.68342 | 24005 ft | 483 kts | 126° |
| 2026-05-05 17:33 | 43.18665 | -95.64338 | 24446 ft | 485 kts | 126° |
| 2026-05-05 17:34 | 43.16988 | -95.60320 | 24862 ft | 488 kts | 126° |
| 2026-05-05 17:34 | 43.15294 | -95.56266 | 25285 ft | 491 kts | 127° |
| 2026-05-05 17:34 | 43.13590 | -95.52201 | 25704 ft | 493 kts | 127° |
| 2026-05-05 17:34 | 43.11893 | -95.48172 | 26111 ft | 496 kts | 127° |
| 2026-05-05 17:35 | 43.10167 | -95.44077 | 26522 ft | 499 kts | 127° |
| 2026-05-05 17:35 | 43.08435 | -95.39957 | 26936 ft | 500 kts | 127° |
| 2026-05-05 17:35 | 43.06702 | -95.35827 | 27381 ft | 502 kts | 127° |
| 2026-05-05 17:35 | 43.04959 | -95.31680 | 27790 ft | 504 kts | 127° |
| 2026-05-05 17:36 | 43.03200 | -95.27503 | 28168 ft | 508 kts | 127° |
| 2026-05-05 17:36 | 43.01434 | -95.23312 | 28550 ft | 510 kts | 127° |
| 2026-05-05 17:36 | 42.99654 | -95.19105 | 28926 ft | 513 kts | 127° |
| 2026-05-05 17:36 | 42.97864 | -95.14884 | 29290 ft | 515 kts | 128° |
| 2026-05-05 17:37 | 42.96056 | -95.10630 | 29653 ft | 518 kts | 128° |
| 2026-05-05 17:37 | 42.94241 | -95.06369 | 30005 ft | 520 kts | 128° |
| 2026-05-05 17:37 | 42.92420 | -95.02090 | 30287 ft | 523 kts | 128° |
| 2026-05-05 17:37 | 42.90588 | -94.97788 | 30506 ft | 526 kts | 127° |
| 2026-05-05 17:38 | 42.88750 | -94.93474 | 30798 ft | 528 kts | 127° |
| 2026-05-05 17:38 | 42.86896 | -94.89138 | 31059 ft | 530 kts | 128° |
| 2026-05-05 17:38 | 42.85035 | -94.84794 | 31402 ft | 531 kts | 128° |
| 2026-05-05 17:38 | 42.83174 | -94.80453 | 31747 ft | 531 kts | 128° |
| 2026-05-05 17:39 | 42.81309 | -94.76106 | 32100 ft | 532 kts | 128° |
| 2026-05-05 17:39 | 42.79437 | -94.71756 | 32430 ft | 533 kts | 128° |
| 2026-05-05 17:39 | 42.77558 | -94.67396 | 32764 ft | 534 kts | 128° |
| 2026-05-05 17:39 | 42.75701 | -94.63090 | 33096 ft | 535 kts | 128° |
| 2026-05-05 17:40 | 42.73816 | -94.58728 | 33439 ft | 535 kts | 129° |
| 2026-05-05 17:40 | 42.71924 | -94.54359 | 33763 ft | 536 kts | 129° |
| 2026-05-05 17:40 | 42.70030 | -94.49990 | 34090 ft | 537 kts | 129° |
| 2026-05-05 17:40 | 42.68135 | -94.45613 | 34387 ft | 538 kts | 128° |
| 2026-05-05 17:41 | 42.66235 | -94.41238 | 34683 ft | 538 kts | 128° |
| 2026-05-05 17:41 | 42.64329 | -94.36865 | 34964 ft | 539 kts | 128° |
| 2026-05-05 17:41 | 42.62416 | -94.32485 | 35245 ft | 538 kts | 129° |
| 2026-05-05 17:41 | 42.60291 | -94.28357 | 35510 ft | 529 kts | 138° |
| 2026-05-05 17:42 | 42.57879 | -94.24654 | 35770 ft | 523 kts | 142° |
| 2026-05-05 17:42 | 42.55410 | -94.21013 | 36028 ft | 523 kts | 142° |
| 2026-05-05 17:42 | 42.52944 | -94.17379 | 36233 ft | 524 kts | 142° |
| 2026-05-05 17:42 | 42.50474 | -94.13736 | 36456 ft | 525 kts | 142° |
| 2026-05-05 17:43 | 42.48000 | -94.10084 | 36678 ft | 527 kts | 142° |
| 2026-05-05 17:43 | 42.45519 | -94.06417 | 36899 ft | 527 kts | 142° |
| 2026-05-05 17:43 | 42.43039 | -94.02756 | 37104 ft | 528 kts | 142° |
| 2026-05-05 17:43 | 42.40552 | -93.99095 | 37314 ft | 529 kts | 142° |
| 2026-05-05 17:44 | 42.38056 | -93.95428 | 37528 ft | 530 kts | 142° |
| 2026-05-05 17:44 | 42.35559 | -93.91765 | 37746 ft | 530 kts | 142° |
| 2026-05-05 17:44 | 42.33057 | -93.88103 | 37912 ft | 531 kts | 142° |
| 2026-05-05 17:44 | 42.30575 | -93.84478 | 38088 ft | 533 kts | 142° |
| 2026-05-05 17:45 | 42.28056 | -93.80802 | 38242 ft | 533 kts | 143° |
| 2026-05-05 17:45 | 42.25533 | -93.77125 | 38431 ft | 534 kts | 142° |
| 2026-05-05 17:45 | 42.23004 | -93.73442 | 38616 ft | 534 kts | 142° |
| 2026-05-05 17:45 | 42.20480 | -93.69763 | 38792 ft | 534 kts | 142° |
| 2026-05-05 17:46 | 42.17957 | -93.66080 | 38930 ft | 534 kts | 142° |
| 2026-05-05 17:46 | 42.12915 | -93.58741 | 38940 ft | 533 kts | 142° |
| 2026-05-05 17:47 | 42.07586 | -93.52024 | 38967 ft | 513 kts | 156° |
| 2026-05-05 17:47 | 42.04617 | -93.49473 | 38969 ft | 501 kts | 163° |
| 2026-05-05 17:47 | 42.01584 | -93.47167 | 38967 ft | 501 kts | 163° |
| 2026-05-05 17:48 | 41.95516 | -93.42545 | 38961 ft | 501 kts | 163° |
| 2026-05-05 17:48 | 41.89458 | -93.37914 | 38933 ft | 501 kts | 163° |
| 2026-05-05 17:49 | 41.83389 | -93.33291 | 38957 ft | 501 kts | 163° |
| 2026-05-05 17:49 | 41.77312 | -93.28679 | 38964 ft | 502 kts | 163° |
| 2026-05-05 17:50 | 41.71273 | -93.24098 | 38935 ft | 502 kts | 163° |
| 2026-05-05 17:50 | 41.65196 | -93.19509 | 38965 ft | 501 kts | 163° |
| 2026-05-05 17:51 | 41.59119 | -93.14918 | 38985 ft | 502 kts | 163° |
| 2026-05-05 17:51 | 41.53048 | -93.10333 | 38989 ft | 501 kts | 163° |
| 2026-05-05 17:52 | 41.46971 | -93.05765 | 38988 ft | 501 kts | 163° |
| 2026-05-05 17:52 | 41.40884 | -93.01212 | 39000 ft | 501 kts | 163° |
| 2026-05-05 17:53 | 41.34793 | -92.96670 | 39003 ft | 502 kts | 163° |
| 2026-05-05 17:53 | 41.28709 | -92.92125 | 38981 ft | 502 kts | 164° |
| 2026-05-05 17:54 | 41.22620 | -92.87580 | 38981 ft | 502 kts | 164° |
| 2026-05-05 17:54 | 41.16572 | -92.83080 | 38981 ft | 501 kts | 164° |
| 2026-05-05 17:55 | 41.10485 | -92.78569 | 38983 ft | 501 kts | 164° |
| 2026-05-05 17:55 | 41.04392 | -92.74065 | 38947 ft | 501 kts | 165° |
| 2026-05-05 17:56 | 40.98305 | -92.69582 | 38954 ft | 501 kts | 165° |
| 2026-05-05 17:56 | 40.92210 | -92.65096 | 38966 ft | 501 kts | 164° |
| 2026-05-05 17:57 | 40.86112 | -92.60600 | 38927 ft | 502 kts | 164° |
| 2026-05-05 17:57 | 40.80033 | -92.56132 | 38941 ft | 503 kts | 164° |
| 2026-05-05 17:58 | 40.73906 | -92.51652 | 38954 ft | 504 kts | 165° |
| 2026-05-05 17:58 | 40.67777 | -92.47179 | 38964 ft | 504 kts | 165° |
| 2026-05-05 17:59 | 40.61643 | -92.42702 | 38976 ft | 504 kts | 165° |
| 2026-05-05 17:59 | 40.55507 | -92.38242 | 38980 ft | 504 kts | 165° |
| 2026-05-05 18:00 | 40.49369 | -92.33796 | 38982 ft | 503 kts | 165° |
| 2026-05-05 18:00 | 40.43234 | -92.29346 | 38955 ft | 503 kts | 165° |
| 2026-05-05 18:01 | 40.37097 | -92.24912 | 38946 ft | 504 kts | 165° |
| 2026-05-05 18:01 | 40.30964 | -92.20371 | 38954 ft | 514 kts | 159° |
| 2026-05-05 18:01 | 40.28083 | -92.17488 | 38956 ft | 530 kts | 149° |
| 2026-05-05 18:02 | 40.25475 | -92.13983 | 38957 ft | 544 kts | 138° |
| 2026-05-05 18:02 | 40.20867 | -92.06123 | 38939 ft | 549 kts | 136° |
| 2026-05-05 18:03 | 40.16212 | -91.98196 | 38950 ft | 549 kts | 136° |
| 2026-05-05 18:03 | 40.11538 | -91.90301 | 38962 ft | 550 kts | 136° |
| 2026-05-05 18:04 | 40.06848 | -91.82406 | 38956 ft | 551 kts | 136° |
| 2026-05-05 18:04 | 40.02148 | -91.74495 | 38964 ft | 551 kts | 136° |
| 2026-05-05 18:05 | 39.97448 | -91.66587 | 38949 ft | 552 kts | 136° |
| 2026-05-05 18:05 | 39.92739 | -91.58692 | 38973 ft | 552 kts | 136° |
| 2026-05-05 18:06 | 39.88011 | -91.50802 | 38991 ft | 552 kts | 136° |
| 2026-05-05 18:06 | 39.83286 | -91.42911 | 38997 ft | 552 kts | 135° |
| 2026-05-05 18:07 | 39.78557 | -91.35029 | 38965 ft | 552 kts | 136° |
| 2026-05-05 18:07 | 39.73852 | -91.27227 | 38988 ft | 552 kts | 136° |
| 2026-05-05 18:08 | 39.69112 | -91.19383 | 39056 ft | 552 kts | 136° |
| 2026-05-05 18:08 | 39.64368 | -91.11559 | 39071 ft | 551 kts | 136° |
| 2026-05-05 18:09 | 39.59616 | -91.03737 | 39058 ft | 552 kts | 136° |
| 2026-05-05 18:09 | 39.54869 | -90.95938 | 39008 ft | 550 kts | 136° |
| 2026-05-05 18:10 | 39.50116 | -90.88157 | 39002 ft | 550 kts | 136° |
| 2026-05-05 18:10 | 39.45381 | -90.80407 | 39003 ft | 549 kts | 136° |
| 2026-05-05 18:11 | 39.40635 | -90.72664 | 38988 ft | 549 kts | 136° |
| 2026-05-05 18:11 | 39.35924 | -90.64993 | 38956 ft | 549 kts | 136° |
| 2026-05-05 18:12 | 39.31170 | -90.57280 | 38930 ft | 548 kts | 136° |
| 2026-05-05 18:12 | 39.26413 | -90.49577 | 38941 ft | 548 kts | 136° |
| 2026-05-05 18:13 | 39.21663 | -90.41896 | 38952 ft | 548 kts | 136° |
| 2026-05-05 18:13 | 39.16913 | -90.34229 | 38962 ft | 547 kts | 136° |
| 2026-05-05 18:14 | 39.12146 | -90.26577 | 38903 ft | 547 kts | 136° |
| 2026-05-05 18:14 | 39.07368 | -90.18936 | 38933 ft | 547 kts | 136° |
| 2026-05-05 18:15 | 39.02608 | -90.11311 | 38962 ft | 547 kts | 136° |
| 2026-05-05 18:15 | 38.97837 | -90.03684 | 38975 ft | 546 kts | 136° |
| 2026-05-05 18:16 | 38.93063 | -89.96091 | 38937 ft | 546 kts | 136° |
| 2026-05-05 18:16 | 38.89098 | -89.89791 | 38886 ft | 546 kts | 136° |
| 2026-05-05 18:17 | 38.84320 | -89.82207 | 38895 ft | 546 kts | 136° |
| 2026-05-05 18:17 | 38.78752 | -89.73410 | 38904 ft | 547 kts | 136° |
| 2026-05-05 18:18 | 38.74727 | -89.67066 | 38908 ft | 547 kts | 136° |
| 2026-05-05 18:18 | 38.69956 | -89.59564 | 38914 ft | 547 kts | 136° |
| 2026-05-05 18:19 | 38.65151 | -89.52027 | 38887 ft | 546 kts | 136° |
| 2026-05-05 18:19 | 38.60340 | -89.44492 | 38895 ft | 546 kts | 136° |
| 2026-05-05 18:20 | 38.55535 | -89.36977 | 38902 ft | 546 kts | 136° |
| 2026-05-05 18:20 | 38.50724 | -89.29466 | 38912 ft | 546 kts | 136° |
| 2026-05-05 18:21 | 38.45905 | -89.21965 | 38895 ft | 546 kts | 136° |
| 2026-05-05 18:21 | 38.40925 | -89.14695 | 38900 ft | 538 kts | 145° |
| 2026-05-05 18:22 | 38.35395 | -89.08430 | 38901 ft | 535 kts | 147° |
| 2026-05-05 18:22 | 38.29801 | -89.02150 | 38904 ft | 535 kts | 147° |
| 2026-05-05 18:23 | 38.24218 | -88.95886 | 38911 ft | 536 kts | 147° |
| 2026-05-05 18:23 | 38.18623 | -88.89611 | 38914 ft | 536 kts | 147° |
| 2026-05-05 18:24 | 38.13040 | -88.83350 | 38894 ft | 536 kts | 147° |
| 2026-05-05 18:24 | 38.07443 | -88.77101 | 38892 ft | 536 kts | 147° |
| 2026-05-05 18:25 | 38.01836 | -88.70863 | 38889 ft | 536 kts | 147° |
| 2026-05-05 18:25 | 37.96225 | -88.64618 | 38897 ft | 536 kts | 147° |
| 2026-05-05 18:26 | 37.90650 | -88.58420 | 38858 ft | 536 kts | 147° |
| 2026-05-05 18:26 | 37.85028 | -88.52208 | 38881 ft | 536 kts | 147° |
| 2026-05-05 18:27 | 37.79400 | -88.45990 | 38904 ft | 537 kts | 147° |
| 2026-05-05 18:27 | 37.73777 | -88.39786 | 38896 ft | 537 kts | 147° |
| 2026-05-05 18:28 | 37.65332 | -88.30488 | 38857 ft | 537 kts | 147° |
| 2026-05-05 18:28 | 37.59695 | -88.24310 | 38858 ft | 537 kts | 147° |
| 2026-05-05 18:29 | 37.54048 | -88.18140 | 38868 ft | 537 kts | 147° |
| 2026-05-05 18:29 | 37.48399 | -88.11988 | 38888 ft | 537 kts | 147° |
| 2026-05-05 18:30 | 37.42784 | -88.05859 | 38885 ft | 538 kts | 146° |
| 2026-05-05 18:30 | 37.37125 | -87.99699 | 38898 ft | 538 kts | 146° |
| 2026-05-05 18:31 | 37.31462 | -87.93544 | 38901 ft | 538 kts | 146° |
| 2026-05-05 18:31 | 37.25796 | -87.87404 | 38876 ft | 538 kts | 146° |
| 2026-05-05 18:32 | 37.20132 | -87.81275 | 38853 ft | 538 kts | 146° |
| 2026-05-05 18:32 | 37.14458 | -87.75159 | 38860 ft | 538 kts | 146° |
| 2026-05-05 18:33 | 37.08773 | -87.69054 | 38898 ft | 538 kts | 146° |
| 2026-05-05 18:33 | 37.03099 | -87.62948 | 38901 ft | 538 kts | 146° |
| 2026-05-05 18:34 | 36.97449 | -87.56880 | 38905 ft | 538 kts | 146° |
| 2026-05-05 18:34 | 36.91754 | -87.50800 | 38894 ft | 539 kts | 146° |
| 2026-05-05 18:35 | 36.86046 | -87.44707 | 38898 ft | 540 kts | 146° |
| 2026-05-05 18:35 | 36.80338 | -87.38613 | 38903 ft | 540 kts | 146° |
| 2026-05-05 18:36 | 36.74610 | -87.32530 | 38942 ft | 541 kts | 146° |
| 2026-05-05 18:36 | 36.68873 | -87.26443 | 38913 ft | 542 kts | 146° |
| 2026-05-05 18:37 | 36.63120 | -87.20345 | 38902 ft | 544 kts | 146° |
| 2026-05-05 18:37 | 36.57343 | -87.14229 | 38915 ft | 545 kts | 146° |
| 2026-05-05 18:38 | 36.51587 | -87.08166 | 38932 ft | 546 kts | 146° |
| 2026-05-05 18:38 | 36.45781 | -87.02059 | 38904 ft | 546 kts | 146° |
| 2026-05-05 18:39 | 36.39983 | -86.95964 | 38942 ft | 546 kts | 146° |
| 2026-05-05 18:39 | 36.34172 | -86.89874 | 38961 ft | 547 kts | 146° |
| 2026-05-05 18:40 | 36.28356 | -86.83778 | 38963 ft | 547 kts | 146° |
| 2026-05-05 18:40 | 36.22531 | -86.77700 | 38965 ft | 548 kts | 146° |
| 2026-05-05 18:41 | 36.16733 | -86.71671 | 38934 ft | 547 kts | 146° |
| 2026-05-05 18:41 | 36.10597 | -86.66276 | 38955 ft | 535 kts | 158° |
| 2026-05-05 18:42 | 36.04124 | -86.61724 | 38989 ft | 535 kts | 158° |
| 2026-05-05 18:42 | 35.97645 | -86.57172 | 38994 ft | 535 kts | 158° |
| 2026-05-05 18:43 | 35.91170 | -86.52627 | 38989 ft | 535 kts | 158° |
| 2026-05-05 18:43 | 35.84694 | -86.48077 | 39002 ft | 536 kts | 158° |
| 2026-05-05 18:44 | 35.78210 | -86.43536 | 38992 ft | 536 kts | 158° |
| 2026-05-05 18:44 | 35.71716 | -86.39005 | 38985 ft | 536 kts | 158° |
| 2026-05-05 18:45 | 35.65247 | -86.34425 | 38960 ft | 537 kts | 157° |
| 2026-05-05 18:45 | 35.58822 | -86.29843 | 38970 ft | 537 kts | 157° |
| 2026-05-05 18:46 | 35.52351 | -86.25244 | 38984 ft | 537 kts | 157° |
| 2026-05-05 18:46 | 35.45877 | -86.20676 | 39008 ft | 536 kts | 158° |
| 2026-05-05 18:47 | 35.39680 | -86.15444 | 39000 ft | 545 kts | 147° |
| 2026-05-05 18:47 | 35.33736 | -86.09650 | 38995 ft | 546 kts | 147° |
| 2026-05-05 18:48 | 35.27782 | -86.03872 | 39006 ft | 546 kts | 147° |
| 2026-05-05 18:48 | 35.21840 | -85.98159 | 39014 ft | 547 kts | 147° |
| 2026-05-05 18:49 | 35.15847 | -85.92436 | 38986 ft | 546 kts | 147° |
| 2026-05-05 18:49 | 35.12851 | -85.89574 | 38829 ft | 548 kts | 147° |
| 2026-05-05 18:49 | 35.09832 | -85.86698 | 38142 ft | 551 kts | 147° |
| 2026-05-05 18:50 | 35.06816 | -85.83822 | 37447 ft | 550 kts | 147° |
| 2026-05-05 18:50 | 35.03802 | -85.80947 | 36774 ft | 549 kts | 147° |
| 2026-05-05 18:50 | 35.00794 | -85.78086 | 36120 ft | 548 kts | 147° |
| 2026-05-05 18:50 | 34.97781 | -85.75224 | 35469 ft | 548 kts | 146° |
| 2026-05-05 18:51 | 34.94781 | -85.72371 | 34847 ft | 546 kts | 146° |
| 2026-05-05 18:51 | 34.91800 | -85.69534 | 34243 ft | 543 kts | 146° |
| 2026-05-05 18:51 | 34.88827 | -85.66707 | 33542 ft | 541 kts | 147° |
| 2026-05-05 18:51 | 34.85857 | -85.63892 | 32872 ft | 540 kts | 147° |
| 2026-05-05 18:52 | 34.82903 | -85.61094 | 32212 ft | 537 kts | 147° |
| 2026-05-05 18:52 | 34.79959 | -85.58312 | 31563 ft | 534 kts | 146° |
| 2026-05-05 18:52 | 34.77029 | -85.55551 | 30933 ft | 530 kts | 146° |
| 2026-05-05 18:52 | 34.74130 | -85.52817 | 30318 ft | 524 kts | 146° |
| 2026-05-05 18:53 | 34.71266 | -85.50112 | 29652 ft | 519 kts | 146° |
| 2026-05-05 18:53 | 34.68431 | -85.47432 | 28949 ft | 513 kts | 146° |
| 2026-05-05 18:53 | 34.65632 | -85.44785 | 28264 ft | 506 kts | 146° |
| 2026-05-05 18:53 | 34.62901 | -85.42213 | 27579 ft | 501 kts | 146° |
| 2026-05-05 18:54 | 34.60159 | -85.39638 | 26918 ft | 495 kts | 146° |
| 2026-05-05 18:54 | 34.57452 | -85.37091 | 26291 ft | 490 kts | 146° |
| 2026-05-05 18:54 | 34.54775 | -85.34572 | 25669 ft | 485 kts | 146° |
| 2026-05-05 18:54 | 34.52120 | -85.32075 | 25060 ft | 480 kts | 146° |
| 2026-05-05 18:55 | 34.49499 | -85.29609 | 24461 ft | 475 kts | 146° |
| 2026-05-05 18:55 | 34.46900 | -85.27168 | 23882 ft | 470 kts | 146° |
| 2026-05-05 18:55 | 34.44328 | -85.24757 | 23247 ft | 465 kts | 147° |
| 2026-05-05 18:55 | 34.41777 | -85.22370 | 22567 ft | 461 kts | 146° |
| 2026-05-05 18:56 | 34.39247 | -85.20008 | 21900 ft | 458 kts | 146° |
| 2026-05-05 18:56 | 34.36728 | -85.17662 | 21230 ft | 455 kts | 147° |
| 2026-05-05 18:56 | 34.34229 | -85.15338 | 20592 ft | 452 kts | 146° |
| 2026-05-05 18:56 | 34.31737 | -85.13021 | 19960 ft | 450 kts | 146° |
| 2026-05-05 18:57 | 34.29263 | -85.10715 | 19347 ft | 448 kts | 146° |
| 2026-05-05 18:57 | 34.26797 | -85.08419 | 18743 ft | 446 kts | 146° |
| 2026-05-05 18:57 | 34.24345 | -85.06139 | 18121 ft | 445 kts | 146° |
| 2026-05-05 18:57 | 34.21896 | -85.03859 | 17446 ft | 443 kts | 146° |
| 2026-05-05 18:58 | 34.19463 | -85.01596 | 16799 ft | 440 kts | 146° |
| 2026-05-05 18:58 | 34.17044 | -84.99349 | 16157 ft | 437 kts | 146° |
| 2026-05-05 18:58 | 34.14671 | -84.97150 | 15525 ft | 434 kts | 146° |
| 2026-05-05 18:58 | 34.12286 | -84.94930 | 14901 ft | 431 kts | 146° |
| 2026-05-05 18:59 | 34.09924 | -84.92702 | 14274 ft | 428 kts | 145° |
| 2026-05-05 18:59 | 34.07596 | -84.90487 | 13647 ft | 424 kts | 145° |
| 2026-05-05 18:59 | 34.05295 | -84.88294 | 13146 ft | 416 kts | 145° |
| 2026-05-05 18:59 | 34.03048 | -84.86153 | 12740 ft | 405 kts | 145° |
| 2026-05-05 19:00 | 34.00899 | -84.84026 | 12330 ft | 396 kts | 139° |
| 2026-05-05 19:00 | 33.99217 | -84.81439 | 11941 ft | 389 kts | 124° |
| 2026-05-05 19:00 | 33.97822 | -84.78692 | 11549 ft | 379 kts | 124° |
| 2026-05-05 19:00 | 33.96476 | -84.76022 | 11159 ft | 366 kts | 124° |
| 2026-05-05 19:01 | 33.95183 | -84.73454 | 10858 ft | 351 kts | 124° |
| 2026-05-05 19:01 | 33.93958 | -84.71025 | 10559 ft | 338 kts | 124° |
| 2026-05-05 19:01 | 33.92753 | -84.68647 | 10251 ft | 327 kts | 124° |
| 2026-05-05 19:01 | 33.91584 | -84.66351 | 9950 ft | 317 kts | 125° |
| 2026-05-05 19:02 | 33.90445 | -84.64121 | 9584 ft | 308 kts | 125° |
| 2026-05-05 19:02 | 33.89335 | -84.61947 | 9243 ft | 303 kts | 125° |
| 2026-05-05 19:02 | 33.88238 | -84.59797 | 8867 ft | 300 kts | 125° |
| 2026-05-05 19:02 | 33.87151 | -84.57659 | 8481 ft | 298 kts | 125° |
| 2026-05-05 19:03 | 33.86075 | -84.55543 | 8096 ft | 294 kts | 125° |
| 2026-05-05 19:03 | 33.85012 | -84.53454 | 7730 ft | 291 kts | 126° |
| 2026-05-05 19:03 | 33.83960 | -84.51386 | 7388 ft | 288 kts | 125° |
| 2026-05-05 19:03 | 33.82918 | -84.49344 | 7024 ft | 285 kts | 125° |
| 2026-05-05 19:04 | 33.81887 | -84.47322 | 6666 ft | 281 kts | 125° |
| 2026-05-05 19:04 | 33.80871 | -84.45332 | 6315 ft | 277 kts | 125° |
| 2026-05-05 19:04 | 33.79866 | -84.43365 | 5962 ft | 274 kts | 126° |
| 2026-05-05 19:04 | 33.78895 | -84.41471 | 5632 ft | 270 kts | 125° |
| 2026-05-05 19:05 | 33.77929 | -84.39585 | 5329 ft | 267 kts | 125° |
| 2026-05-05 19:05 | 33.76956 | -84.37683 | 5008 ft | 264 kts | 125° |
| 2026-05-05 19:05 | 33.76001 | -84.35817 | 4693 ft | 260 kts | 125° |
| 2026-05-05 19:05 | 33.75057 | -84.33971 | 4377 ft | 257 kts | 126° |
| 2026-05-05 19:06 | 33.74193 | -84.32087 | 4128 ft | 259 kts | 117° |
| 2026-05-05 19:06 | 33.73607 | -84.30029 | 3875 ft | 263 kts | 108° |
| 2026-05-05 19:06 | 33.73328 | -84.27849 | 3657 ft | 266 kts | 97° |
| 2026-05-05 19:06 | 33.73310 | -84.25621 | 3514 ft | 267 kts | 94° |
| 2026-05-05 19:07 | 33.73314 | -84.23397 | 3477 ft | 266 kts | 93° |
| 2026-05-05 19:07 | 33.73314 | -84.21920 | 3474 ft | 267 kts | 93° |
| 2026-05-05 19:07 | 33.72871 | -84.19065 | 3483 ft | 257 kts | 123° |
| 2026-05-05 19:07 | 33.71674 | -84.17555 | 3481 ft | 249 kts | 152° |
| 2026-05-05 19:08 | 33.70087 | -84.16963 | 3482 ft | 230 kts | 176° |
| 2026-05-05 19:08 | 33.68558 | -84.17083 | 3472 ft | 212 kts | 198° |
| 2026-05-05 19:08 | 33.67380 | -84.18016 | 3480 ft | 201 kts | 222° |
| 2026-05-05 19:08 | 33.66383 | -84.19208 | 3485 ft | 203 kts | 224° |
| 2026-05-05 19:09 | 33.65730 | -84.20048 | 3491 ft | 213 kts | 228° |
| 2026-05-05 19:09 | 33.64954 | -84.22254 | 3493 ft | 226 kts | 260° |
| 2026-05-05 19:09 | 33.64930 | -84.24153 | 3490 ft | 227 kts | 266° |
| 2026-05-05 19:09 | 33.64942 | -84.26035 | 3400 ft | 223 kts | 266° |
| 2026-05-05 19:10 | 33.64948 | -84.27888 | 3133 ft | 220 kts | 265° |
| 2026-05-05 19:10 | 33.64950 | -84.29710 | 2858 ft | 214 kts | 265° |
| 2026-05-05 19:10 | 33.64952 | -84.31456 | 2596 ft | 203 kts | 265° |
| 2026-05-05 19:10 | 33.64954 | -84.32541 | 2444 ft | 192 kts | 265° |
| 2026-05-05 19:11 | 33.64955 | -84.34095 | 2175 ft | 180 kts | 265° |
| 2026-05-05 19:11 | 33.64956 | -84.35523 | 1944 ft | 159 kts | 265° |
| 2026-05-05 19:11 | 33.64957 | -84.36772 | 1743 ft | 142 kts | 265° |
| 2026-05-05 19:11 | 33.64956 | -84.37915 | 1530 ft | 132 kts | 266° |
| 2026-05-05 19:12 | 33.64956 | -84.39033 | 1357 ft | 138 kts | 269° |
| 2026-05-05 19:12 | 33.64957 | -84.40192 | 1169 ft | 139 kts | 268° |
| 2026-05-05 19:12 | 33.64957 | -84.41348 | 1017 ft | 134 kts | 268° |
| 2026-05-05 19:12 | 33.64953 | -84.42299 | 1007 ft | 91 kts | 270° |
| 2026-05-05 19:13 | 33.64953 | -84.42880 | 1006 ft | 54 kts | 270° |
| 2026-05-05 19:13 | 33.64930 | -84.43160 | 1007 ft | 29 kts | 253° |
| 2026-05-05 19:13 | 33.64858 | -84.43348 | 1006 ft | 21 kts | 245° |
| 2026-05-05 19:13 | 33.64844 | -84.43478 | 1006 ft | 14 kts | 266° |
| 2026-05-05 19:14 | 33.64780 | -84.43557 | 1007 ft | 14 kts | 208° |
| 2026-05-05 19:14 | 33.64689 | -84.43619 | 1006 ft | 16 kts | 210° |
| 2026-05-05 19:14 | 33.64590 | -84.43688 | 1006 ft | 17 kts | 211° |
| 2026-05-05 19:14 | 33.64531 | -84.43787 | 1006 ft | 15 kts | 257° |
| 2026-05-05 19:15 | 33.64513 | -84.43919 | 1006 ft | 16 kts | 262° |
| 2026-05-05 19:15 | 33.64490 | -84.44053 | 1006 ft | 16 kts | 244° |
| 2026-05-05 19:15 | 33.64409 | -84.44114 | 1006 ft | 12 kts | 186° |
| 2026-05-05 19:15 | 33.64327 | -84.44115 | 1006 ft | 11 kts | 180° |
| 2026-05-05 19:16 | 33.64255 | -84.44115 | 1006 ft | 10 kts | 179° |
| 2026-05-05 19:16 | 33.64178 | -84.44115 | 1006 ft | 13 kts | 180° |
| 2026-05-05 19:16 | 33.64078 | -84.44115 | 1006 ft | 14 kts | 179° |
| 2026-05-05 19:16 | 33.63993 | -84.44115 | 1006 ft | 12 kts | 180° |
| 2026-05-05 19:17 | 33.63932 | -84.44122 | 1006 ft | 6 kts | 205° |
| 2026-05-05 19:17 | 33.63922 | -84.44159 | 1006 ft | 4 kts | 273° |
| 2026-05-05 19:17 | 33.63923 | -84.44189 | 1006 ft | 3 kts | 269° |
| 2026-05-05 19:17 | 33.63923 | -84.44193 | 1006 ft | 0 kts | 270° |
| 2026-05-05 19:18 | 33.63923 | -84.44195 | 1006 ft | 0 kts | 270° |